sensor_id;sensor_type;location;lat;lon;timestamp;pressure;altitude;pressure_sealevel;temperature
19061;BMP280;9663;48.996;8.334;2024-03-08T00:00:09;100173.25;;;13.02
19061;BMP280;9663;48.996;8.334;2024-03-08T00:02:46;100179.25;;;12.99
19061;BMP280;9663;48.996;8.334;2024-03-08T00:05:14;100179.28;;;12.98
19061;BMP280;9663;48.996;8.334;2024-03-08T00:07:41;100179.28;;;12.96
19061;BMP280;9663;48.996;8.334;2024-03-08T00:10:10;100167.47;;;12.94
19061;BMP280;9663;48.996;8.334;2024-03-08T00:12:40;100168.34;;;12.91
19061;BMP280;9663;48.996;8.334;2024-03-08T00:15:10;100162.47;;;12.88
19061;BMP280;9663;48.996;8.334;2024-03-08T00:17:36;100162.47;;;12.86
19061;BMP280;9663;48.996;8.334;2024-03-08T00:20:04;100165.09;;;12.82
19061;BMP280;9663;48.996;8.334;2024-03-08T00:22:30;100165.09;;;12.79
19061;BMP280;9663;48.996;8.334;2024-03-08T00:24:56;100160.06;;;12.76
19061;BMP280;9663;48.996;8.334;2024-03-08T00:27:22;100164.31;;;12.74
19061;BMP280;9663;48.996;8.334;2024-03-08T00:29:47;100160.13;;;12.72
19061;BMP280;9663;48.996;8.334;2024-03-08T00:32:13;100150.81;;;12.69
19061;BMP280;9663;48.996;8.334;2024-03-08T00:34:39;100160.19;;;12.67
19061;BMP280;9663;48.996;8.334;2024-03-08T00:37:05;100151.78;;;12.62
19061;BMP280;9663;48.996;8.334;2024-03-08T00:39:30;100147.56;;;12.61
19061;BMP280;9663;48.996;8.334;2024-03-08T00:41:56;100143.34;;;12.59
19061;BMP280;9663;48.996;8.334;2024-03-08T00:44:22;100140.84;;;12.56
19061;BMP280;9663;48.996;8.334;2024-03-08T00:46:47;100139.19;;;12.53
19061;BMP280;9663;48.996;8.334;2024-03-08T00:49:13;100147.69;;;12.51
19061;BMP280;9663;48.996;8.334;2024-03-08T00:51:39;100131.63;;;12.49
19061;BMP280;9663;48.996;8.334;2024-03-08T00:54:04;100138.44;;;12.47
19061;BMP280;9663;48.996;8.334;2024-03-08T00:56:30;100135.09;;;12.43
19061;BMP280;9663;48.996;8.334;2024-03-08T00:58:56;100141.03;;;12.42
19061;BMP280;9663;48.996;8.334;2024-03-08T01:01:22;100135.16;;;12.37
19061;BMP280;9663;48.996;8.334;2024-03-08T01:03:47;100136.88;;;12.36
19061;BMP280;9663;48.996;8.334;2024-03-08T01:06:14;100136.06;;;12.34
19061;BMP280;9663;48.996;8.334;2024-03-08T01:08:40;100136.13;;;12.31
19061;BMP280;9663;48.996;8.334;2024-03-08T01:11:08;100136.97;;;12.30
19061;BMP280;9663;48.996;8.334;2024-03-08T01:13:34;100118.34;;;12.28
19061;BMP280;9663;48.996;8.334;2024-03-08T01:16:00;100120.91;;;12.25
19061;BMP280;9663;48.996;8.334;2024-03-08T01:18:26;100115.03;;;12.21
19061;BMP280;9663;48.996;8.334;2024-03-08T01:20:52;100125.22;;;12.20
19061;BMP280;9663;48.996;8.334;2024-03-08T01:23:17;100117.63;;;12.17
19061;BMP280;9663;48.996;8.334;2024-03-08T01:25:43;100118.53;;;12.14
19061;BMP280;9663;48.996;8.334;2024-03-08T01:28:09;100110.09;;;12.12
19061;BMP280;9663;48.996;8.334;2024-03-08T01:30:35;100110.13;;;12.09
19061;BMP280;9663;48.996;8.334;2024-03-08T01:33:03;100106.75;;;12.09
19061;BMP280;9663;48.996;8.334;2024-03-08T01:35:28;100105.91;;;12.07
19061;BMP280;9663;48.996;8.334;2024-03-08T01:37:54;100101.72;;;12.03
19061;BMP280;9663;48.996;8.334;2024-03-08T01:40:20;100098.38;;;12.01
19061;BMP280;9663;48.996;8.334;2024-03-08T01:42:46;100094.16;;;11.98
19061;BMP280;9663;48.996;8.334;2024-03-08T01:45:13;100094.22;;;11.94
19061;BMP280;9663;48.996;8.334;2024-03-08T01:47:39;100093.41;;;11.91
19061;BMP280;9663;48.996;8.334;2024-03-08T01:50:06;100090.06;;;11.87
19061;BMP280;9663;48.996;8.334;2024-03-08T01:52:33;100087.50;;;11.87
19061;BMP280;9663;48.996;8.334;2024-03-08T01:55:06;100085.88;;;11.83
19061;BMP280;9663;48.996;8.334;2024-03-08T01:57:35;100085.06;;;11.80
19061;BMP280;9663;48.996;8.334;2024-03-08T02:00:02;100076.59;;;11.79
19061;BMP280;9663;48.996;8.334;2024-03-08T02:02:34;100073.25;;;11.74
19061;BMP280;9663;48.996;8.334;2024-03-08T02:05:01;100068.22;;;11.73
19061;BMP280;9663;48.996;8.334;2024-03-08T02:07:26;100064.84;;;11.71
19061;BMP280;9663;48.996;8.334;2024-03-08T02:09:52;100058.09;;;11.68
19061;BMP280;9663;48.996;8.334;2024-03-08T02:12:18;100052.19;;;11.68
19061;BMP280;9663;48.996;8.334;2024-03-08T02:14:46;100048.81;;;11.64
19061;BMP280;9663;48.996;8.334;2024-03-08T02:17:12;100042.94;;;11.62
19061;BMP280;9663;48.996;8.334;2024-03-08T02:19:38;100042.13;;;11.60
19061;BMP280;9663;48.996;8.334;2024-03-08T02:22:05;100042.97;;;11.59
19061;BMP280;9663;48.996;8.334;2024-03-08T02:24:32;100027.78;;;11.56
19061;BMP280;9663;48.996;8.334;2024-03-08T02:26:58;100034.59;;;11.53
19061;BMP280;9663;48.996;8.334;2024-03-08T02:29:24;100038.00;;;11.51
19061;BMP280;9663;48.996;8.334;2024-03-08T02:31:53;100035.50;;;11.48
19061;BMP280;9663;48.996;8.334;2024-03-08T02:34:19;100039.72;;;11.44
19061;BMP280;9663;48.996;8.334;2024-03-08T02:36:45;100033.84;;;11.41
19061;BMP280;9663;48.996;8.334;2024-03-08T02:39:12;100038.09;;;11.39
19061;BMP280;9663;48.996;8.334;2024-03-08T02:41:38;100027.09;;;11.38
19061;BMP280;9663;48.996;8.334;2024-03-08T02:44:03;100028.00;;;11.34
19061;BMP280;9663;48.996;8.334;2024-03-08T02:46:29;100024.63;;;11.34
19061;BMP280;9663;48.996;8.334;2024-03-08T02:48:55;100028.84;;;11.33
19061;BMP280;9663;48.996;8.334;2024-03-08T02:51:21;100024.66;;;11.31
19061;BMP280;9663;48.996;8.334;2024-03-08T02:53:47;100020.44;;;11.28
19061;BMP280;9663;48.996;8.334;2024-03-08T02:56:15;100019.59;;;11.28
19061;BMP280;9663;48.996;8.334;2024-03-08T02:58:42;100023.84;;;11.27
19061;BMP280;9663;48.996;8.334;2024-03-08T03:01:09;100019.63;;;11.25
19061;BMP280;9663;48.996;8.334;2024-03-08T03:03:36;100018.78;;;11.26
19061;BMP280;9663;48.996;8.334;2024-03-08T03:06:02;100019.63;;;11.25
19061;BMP280;9663;48.996;8.334;2024-03-08T03:08:28;100006.13;;;11.23
19061;BMP280;9663;48.996;8.334;2024-03-08T03:10:53;100010.38;;;11.21
19061;BMP280;9663;48.996;8.334;2024-03-08T03:13:22;100005.28;;;11.21
19061;BMP280;9663;48.996;8.334;2024-03-08T03:15:48;100008.69;;;11.18
19061;BMP280;9663;48.996;8.334;2024-03-08T03:18:14;100009.59;;;11.16
19061;BMP280;9663;48.996;8.334;2024-03-08T03:20:41;99997.72;;;11.15
19061;BMP280;9663;48.996;8.334;2024-03-08T03:23:08;99995.22;;;11.12
19061;BMP280;9663;48.996;8.334;2024-03-08T03:25:35;99995.25;;;11.10
19061;BMP280;9663;48.996;8.334;2024-03-08T03:28:02;99986.81;;;11.08
19061;BMP280;9663;48.996;8.334;2024-03-08T03:30:28;99985.16;;;11.06
19061;BMP280;9663;48.996;8.334;2024-03-08T03:33:02;99991.97;;;11.03
19061;BMP280;9663;48.996;8.334;2024-03-08T03:35:32;99981.84;;;10.98
19061;BMP280;9663;48.996;8.334;2024-03-08T03:37:58;99979.31;;;10.97
19061;BMP280;9663;48.996;8.334;2024-03-08T03:40:37;99983.56;;;10.96
19061;BMP280;9663;48.996;8.334;2024-03-08T03:43:03;99981.06;;;10.93
19061;BMP280;9663;48.996;8.334;2024-03-08T03:45:29;99984.44;;;10.92
19061;BMP280;9663;48.996;8.334;2024-03-08T03:47:59;99983.63;;;10.90
19061;BMP280;9663;48.996;8.334;2024-03-08T03:50:26;99978.56;;;10.87
19061;BMP280;9663;48.996;8.334;2024-03-08T03:52:51;99970.13;;;10.85
19061;BMP280;9663;48.996;8.334;2024-03-08T03:55:17;99965.94;;;10.84
19061;BMP280;9663;48.996;8.334;2024-03-08T03:57:43;99965.97;;;10.81
19061;BMP280;9663;48.996;8.334;2024-03-08T04:00:11;99970.16;;;10.81
19061;BMP280;9663;48.996;8.334;2024-03-08T04:02:41;99961.72;;;10.80
19061;BMP280;9663;48.996;8.334;2024-03-08T04:05:08;99965.13;;;10.79
19061;BMP280;9663;48.996;8.334;2024-03-08T04:07:35;99972.78;;;10.76
19061;BMP280;9663;48.996;8.334;2024-03-08T04:10:06;99969.38;;;10.76
19061;BMP280;9663;48.996;8.334;2024-03-08T04:12:35;99975.31;;;10.75
19061;BMP280;9663;48.996;8.334;2024-03-08T04:15:01;99968.56;;;10.72
19061;BMP280;9663;48.996;8.334;2024-03-08T04:17:27;99976.19;;;10.71
19061;BMP280;9663;48.996;8.334;2024-03-08T04:19:53;99964.38;;;10.68
19061;BMP280;9663;48.996;8.334;2024-03-08T04:22:19;99969.44;;;10.70
19061;BMP280;9663;48.996;8.334;2024-03-08T04:24:46;99963.56;;;10.66
19061;BMP280;9663;48.996;8.334;2024-03-08T04:27:13;99959.34;;;10.64
19061;BMP280;9663;48.996;8.334;2024-03-08T04:29:39;99960.22;;;10.63
19061;BMP280;9663;48.996;8.334;2024-03-08T04:32:06;99950.09;;;10.62
19061;BMP280;9663;48.996;8.334;2024-03-08T04:34:33;99954.31;;;10.60
19061;BMP280;9663;48.996;8.334;2024-03-08T04:37:01;99955.19;;;10.57
19061;BMP280;9663;48.996;8.334;2024-03-08T04:39:27;99953.50;;;10.56
19061;BMP280;9663;48.996;8.334;2024-03-08T04:42:01;99954.38;;;10.54
19061;BMP280;9663;48.996;8.334;2024-03-08T04:44:30;99946.81;;;10.49
19061;BMP280;9663;48.996;8.334;2024-03-08T04:46:57;99943.44;;;10.49
19061;BMP280;9663;48.996;8.334;2024-03-08T04:49:22;99933.31;;;10.46
19061;BMP280;9663;48.996;8.334;2024-03-08T04:51:48;99935.88;;;10.44
19061;BMP280;9663;48.996;8.334;2024-03-08T04:54:14;99939.28;;;10.42
19061;BMP280;9663;48.996;8.334;2024-03-08T04:56:39;99942.66;;;10.39
19061;BMP280;9663;48.996;8.334;2024-03-08T04:59:05;99930.88;;;10.37
19061;BMP280;9663;48.996;8.334;2024-03-08T05:01:34;99930.00;;;10.36
19061;BMP280;9663;48.996;8.334;2024-03-08T05:04:04;99926.66;;;10.36
19061;BMP280;9663;48.996;8.334;2024-03-08T05:06:29;99926.66;;;10.33
19061;BMP280;9663;48.996;8.334;2024-03-08T05:08:56;99923.31;;;10.32
19061;BMP280;9663;48.996;8.334;2024-03-08T05:11:21;99920.78;;;10.29
19061;BMP280;9663;48.996;8.334;2024-03-08T05:13:47;99918.25;;;10.28
19061;BMP280;9663;48.996;8.334;2024-03-08T05:16:13;99928.41;;;10.28
19061;BMP280;9663;48.996;8.334;2024-03-08T05:18:41;99925.88;;;10.28
19061;BMP280;9663;48.996;8.334;2024-03-08T05:21:07;99927.56;;;10.29
19061;BMP280;9663;48.996;8.334;2024-03-08T05:23:34;99926.69;;;10.28
19061;BMP280;9663;48.996;8.334;2024-03-08T05:26:00;99927.56;;;10.29
19061;BMP280;9663;48.996;8.334;2024-03-08T05:28:26;99923.34;;;10.26
19061;BMP280;9663;48.996;8.334;2024-03-08T05:30:52;99930.94;;;10.26
19061;BMP280;9663;48.996;8.334;2024-03-08T05:33:18;99926.75;;;10.25
19061;BMP280;9663;48.996;8.334;2024-03-08T05:35:44;99922.50;;;10.26
19061;BMP280;9663;48.996;8.334;2024-03-08T05:38:10;99919.97;;;10.24
19061;BMP280;9663;48.996;8.334;2024-03-08T05:40:38;99914.94;;;10.23
19061;BMP280;9663;48.996;8.334;2024-03-08T05:43:04;99925.06;;;10.23
19061;BMP280;9663;48.996;8.334;2024-03-08T05:45:30;99926.78;;;10.21
19061;BMP280;9663;48.996;8.334;2024-03-08T05:47:56;99931.84;;;10.21
19061;BMP280;9663;48.996;8.334;2024-03-08T05:50:22;99916.63;;;10.21
19061;BMP280;9663;48.996;8.334;2024-03-08T05:52:47;99919.16;;;10.21
19061;BMP280;9663;48.996;8.334;2024-03-08T05:55:13;99921.72;;;10.20
19061;BMP280;9663;48.996;8.334;2024-03-08T05:57:42;99931.03;;;10.19
19061;BMP280;9663;48.996;8.334;2024-03-08T06:00:09;99929.31;;;10.20
19061;BMP280;9663;48.996;8.334;2024-03-08T06:02:41;99925.06;;;10.22
19061;BMP280;9663;48.996;8.334;2024-03-08T06:05:10;99925.88;;;10.23
19061;BMP280;9663;48.996;8.334;2024-03-08T06:07:37;99928.44;;;10.23
19061;BMP280;9663;48.996;8.334;2024-03-08T06:10:10;99926.75;;;10.24
19061;BMP280;9663;48.996;8.334;2024-03-08T06:12:36;99920.81;;;10.25
19061;BMP280;9663;48.996;8.334;2024-03-08T06:15:09;99915.75;;;10.25
19061;BMP280;9663;48.996;8.334;2024-03-08T06:17:36;99915.72;;;10.26
19061;BMP280;9663;48.996;8.334;2024-03-08T06:20:02;99914.03;;;10.28
19061;BMP280;9663;48.996;8.334;2024-03-08T06:22:29;99917.41;;;10.29
19061;BMP280;9663;48.996;8.334;2024-03-08T06:24:56;99911.47;;;10.31
19061;BMP280;9663;48.996;8.334;2024-03-08T06:27:22;99907.22;;;10.33
19061;BMP280;9663;48.996;8.334;2024-03-08T06:29:48;99904.66;;;10.35
19061;BMP280;9663;48.996;8.334;2024-03-08T06:32:14;99906.34;;;10.37
19061;BMP280;9663;48.996;8.334;2024-03-08T06:34:41;99913.06;;;10.40
19061;BMP280;9663;48.996;8.334;2024-03-08T06:37:07;99908.88;;;10.42
19061;BMP280;9663;48.996;8.334;2024-03-08T06:39:32;99907.97;;;10.46
19061;BMP280;9663;48.996;8.334;2024-03-08T06:41:59;99907.91;;;10.52
19061;BMP280;9663;48.996;8.334;2024-03-08T06:44:25;99912.09;;;10.56
19061;BMP280;9663;48.996;8.334;2024-03-08T06:46:51;99896.84;;;10.59
19061;BMP280;9663;48.996;8.334;2024-03-08T06:49:16;99899.38;;;10.62
19061;BMP280;9663;48.996;8.334;2024-03-08T06:51:42;99895.91;;;10.67
19061;BMP280;9663;48.996;8.334;2024-03-08T06:54:08;99899.25;;;10.70
19061;BMP280;9663;48.996;8.334;2024-03-08T06:56:36;99899.22;;;10.76
19061;BMP280;9663;48.996;8.334;2024-03-08T06:59:02;99894.94;;;10.78
19061;BMP280;9663;48.996;8.334;2024-03-08T07:01:31;99894.91;;;10.83
19061;BMP280;9663;48.996;8.334;2024-03-08T07:03:58;99886.41;;;10.87
19061;BMP280;9663;48.996;8.334;2024-03-08T07:06:24;99885.47;;;10.92
19061;BMP280;9663;48.996;8.334;2024-03-08T07:08:50;99891.34;;;10.97
19061;BMP280;9663;48.996;8.334;2024-03-08T07:11:16;99872.69;;;11.01
19061;BMP280;9663;48.996;8.334;2024-03-08T07:13:45;99887.84;;;11.07
19061;BMP280;9663;48.996;8.334;2024-03-08T07:16:11;99874.25;;;11.12
19061;BMP280;9663;48.996;8.334;2024-03-08T07:18:37;99883.47;;;11.18
19061;BMP280;9663;48.996;8.334;2024-03-08T07:21:11;99874.94;;;11.23
19061;BMP280;9663;48.996;8.334;2024-03-08T07:23:37;99871.53;;;11.27
19061;BMP280;9663;48.996;8.334;2024-03-08T07:26:15;99867.22;;;11.34
19061;BMP280;9663;48.996;8.334;2024-03-08T07:28:42;99869.63;;;11.41
19061;BMP280;9663;48.996;8.334;2024-03-08T07:31:10;99869.59;;;11.47
19061;BMP280;9663;48.996;8.334;2024-03-08T07:33:44;99875.47;;;11.51
19061;BMP280;9663;48.996;8.334;2024-03-08T07:36:10;99871.16;;;11.55
19061;BMP280;9663;48.996;8.334;2024-03-08T07:38:36;99868.56;;;11.60
19061;BMP280;9663;48.996;8.334;2024-03-08T07:41:02;99873.56;;;11.64
19061;BMP280;9663;48.996;8.334;2024-03-08T07:43:27;99867.53;;;11.71
19061;BMP280;9663;48.996;8.334;2024-03-08T07:45:53;99865.78;;;11.76
19061;BMP280;9663;48.996;8.334;2024-03-08T07:48:20;99871.59;;;11.84
19061;BMP280;9663;48.996;8.334;2024-03-08T07:50:46;99864.66;;;11.92
19061;BMP280;9663;48.996;8.334;2024-03-08T07:53:12;99866.22;;;12.00
19061;BMP280;9663;48.996;8.334;2024-03-08T07:55:38;99848.28;;;12.09
19061;BMP280;9663;48.996;8.334;2024-03-08T07:58:05;99853.19;;;12.18
19061;BMP280;9663;48.996;8.334;2024-03-08T08:00:31;99855.59;;;12.27
19061;BMP280;9663;48.996;8.334;2024-03-08T08:03:00;99840.19;;;12.36
19061;BMP280;9663;48.996;8.334;2024-03-08T08:05:26;99850.22;;;12.45
19061;BMP280;9663;48.996;8.334;2024-03-08T08:07:52;99850.06;;;12.52
19061;BMP280;9663;48.996;8.334;2024-03-08T08:10:18;99842.28;;;12.60
19061;BMP280;9663;48.996;8.334;2024-03-08T08:12:48;99844.63;;;12.70
19061;BMP280;9663;48.996;8.334;2024-03-08T08:15:14;99832.56;;;12.79
19061;BMP280;9663;48.996;8.334;2024-03-08T08:17:42;99831.56;;;12.89
19061;BMP280;9663;48.996;8.334;2024-03-08T08:20:09;99829.66;;;12.99
19061;BMP280;9663;48.996;8.334;2024-03-08T08:22:37;99830.22;;;13.11
19061;BMP280;9663;48.996;8.334;2024-03-08T08:25:04;99829.16;;;13.21
19061;BMP280;9663;48.996;8.334;2024-03-08T08:27:30;99823.97;;;13.27
19061;BMP280;9663;48.996;8.334;2024-03-08T08:29:56;99827.22;;;13.33
19061;BMP280;9663;48.996;8.334;2024-03-08T08:32:22;99825.38;;;13.40
19061;BMP280;9663;48.996;8.334;2024-03-08T08:34:48;99825.19;;;13.47
19061;BMP280;9663;48.996;8.334;2024-03-08T08:37:13;99825.03;;;13.55
19061;BMP280;9663;48.996;8.334;2024-03-08T08:39:39;99819.66;;;13.65
19061;BMP280;9663;48.996;8.334;2024-03-08T08:42:05;99829.63;;;13.74
19061;BMP280;9663;48.996;8.334;2024-03-08T08:44:32;99819.22;;;13.84
19061;BMP280;9663;48.996;8.334;2024-03-08T08:46:58;99829.09;;;13.96
19061;BMP280;9663;48.996;8.334;2024-03-08T08:49:24;99820.38;;;14.06
19061;BMP280;9663;48.996;8.334;2024-03-08T08:51:50;99817.66;;;14.13
19061;BMP280;9663;48.996;8.334;2024-03-08T08:54:16;99809.84;;;14.19
19061;BMP280;9663;48.996;8.334;2024-03-08T08:56:43;99816.47;;;14.25
19061;BMP280;9663;48.996;8.334;2024-03-08T08:59:13;99815.50;;;14.30
19061;BMP280;9663;48.996;8.334;2024-03-08T09:01:48;99806.75;;;14.40
19061;BMP280;9663;48.996;8.334;2024-03-08T09:04:13;99811.63;;;14.48
19061;BMP280;9663;48.996;8.334;2024-03-08T09:06:39;99808.97;;;14.52
19061;BMP280;9663;48.996;8.334;2024-03-08T09:09:08;99804.56;;;14.57
19061;BMP280;9663;48.996;8.334;2024-03-08T09:11:39;99801.94;;;14.60
19061;BMP280;9663;48.996;8.334;2024-03-08T09:14:08;99811.16;;;14.64
19061;BMP280;9663;48.996;8.334;2024-03-08T09:16:34;99806.72;;;14.70
19061;BMP280;9663;48.996;8.334;2024-03-08T09:19:00;99802.31;;;14.77
19061;BMP280;9663;48.996;8.334;2024-03-08T09:21:25;99799.53;;;14.84
19061;BMP280;9663;48.996;8.334;2024-03-08T09:23:53;99796.75;;;14.92
19061;BMP280;9663;48.996;8.334;2024-03-08T09:26:19;99802.44;;;15.01
19061;BMP280;9663;48.996;8.334;2024-03-08T09:28:45;99799.63;;;15.10
19061;BMP280;9663;48.996;8.334;2024-03-08T09:31:12;99799.44;;;15.17
19061;BMP280;9663;48.996;8.334;2024-03-08T09:33:38;99800.97;;;15.23
19061;BMP280;9663;48.996;8.334;2024-03-08T09:36:06;99790.56;;;15.29
19061;BMP280;9663;48.996;8.334;2024-03-08T09:38:33;99794.59;;;15.36
19061;BMP280;9663;48.996;8.334;2024-03-08T09:41:00;99786.72;;;15.43
19061;BMP280;9663;48.996;8.334;2024-03-08T09:43:28;99774.47;;;15.52
19061;BMP280;9663;48.996;8.334;2024-03-08T09:45:55;99773.28;;;15.62
19061;BMP280;9663;48.996;8.334;2024-03-08T09:48:21;99772.25;;;15.69
19061;BMP280;9663;48.996;8.334;2024-03-08T09:50:47;99770.38;;;15.74
19061;BMP280;9663;48.996;8.334;2024-03-08T09:53:13;99759.88;;;15.81
19061;BMP280;9663;48.996;8.334;2024-03-08T09:55:39;99764.81;;;15.87
19061;BMP280;9663;48.996;8.334;2024-03-08T09:58:10;99749.25;;;15.93
19061;BMP280;9663;48.996;8.334;2024-03-08T10:00:55;99744.03;;;15.96
19061;BMP280;9663;48.996;8.334;2024-03-08T10:03:23;99745.47;;;16.03
19061;BMP280;9663;48.996;8.334;2024-03-08T10:05:49;99743.50;;;16.11
19061;BMP280;9663;48.996;8.334;2024-03-08T10:08:14;99742.41;;;16.18
19061;BMP280;9663;48.996;8.334;2024-03-08T10:10:40;99738.66;;;16.28
19061;BMP280;9663;48.996;8.334;2024-03-08T10:13:10;99734.97;;;16.36
19061;BMP280;9663;48.996;8.334;2024-03-08T10:15:39;99736.31;;;16.46
19061;BMP280;9663;48.996;8.334;2024-03-08T10:18:06;99730.91;;;16.54
19061;BMP280;9663;48.996;8.334;2024-03-08T10:20:33;99725.47;;;16.63
19061;BMP280;9663;48.996;8.334;2024-03-08T10:23:00;99725.19;;;16.70
19061;BMP280;9663;48.996;8.334;2024-03-08T10:25:29;99725.91;;;16.73
19061;BMP280;9663;48.996;8.334;2024-03-08T10:27:56;99722.34;;;16.77
19061;BMP280;9663;48.996;8.334;2024-03-08T10:30:21;99724.59;;;16.85
19061;BMP280;9663;48.996;8.334;2024-03-08T10:32:48;99730.63;;;16.84
19061;BMP280;9663;48.996;8.334;2024-03-08T10:35:14;99724.72;;;16.82
19061;BMP280;9663;48.996;8.334;2024-03-08T10:37:47;99724.09;;;16.75
19061;BMP280;9663;48.996;8.334;2024-03-08T10:40:18;99715.66;;;16.73
19061;BMP280;9663;48.996;8.334;2024-03-08T10:42:57;99713.88;;;16.75
19061;BMP280;9663;48.996;8.334;2024-03-08T10:45:40;99721.38;;;16.80
19061;BMP280;9663;48.996;8.334;2024-03-08T10:48:27;99715.19;;;16.85
19061;BMP280;9663;48.996;8.334;2024-03-08T10:51:02;99717.25;;;16.99
19061;BMP280;9663;48.996;8.334;2024-03-08T10:53:28;99709.19;;;17.08
19061;BMP280;9663;48.996;8.334;2024-03-08T10:55:57;99719.16;;;17.15
19061;BMP280;9663;48.996;8.334;2024-03-08T10:58:26;99700.06;;;17.23
19061;BMP280;9663;48.996;8.334;2024-03-08T11:00:54;99709.84;;;17.35
19061;BMP280;9663;48.996;8.334;2024-03-08T11:03:49;99703.56;;;17.42
19061;BMP280;9663;48.996;8.334;2024-03-08T11:06:30;99695.81;;;17.63
19061;BMP280;9663;48.996;8.334;2024-03-08T11:08:56;99691.75;;;17.79
19061;BMP280;9663;48.996;8.334;2024-03-08T11:11:31;99692.03;;;17.92
19061;BMP280;9663;48.996;8.334;2024-03-08T11:13:58;99692.25;;;18.07
19061;BMP280;9663;48.996;8.334;2024-03-08T11:19:00;99688.75;;;18.28
19061;BMP280;9663;48.996;8.334;2024-03-08T11:21:30;99678.03;;;18.38
19061;BMP280;9663;48.996;8.334;2024-03-08T11:24:07;99687.75;;;18.50
19061;BMP280;9663;48.996;8.334;2024-03-08T11:26:33;99701.66;;;18.64
19061;BMP280;9663;48.996;8.334;2024-03-08T11:32:03;99672.19;;;18.89
19061;BMP280;9663;48.996;8.334;2024-03-08T11:34:29;99667.88;;;19.43
19061;BMP280;9663;48.996;8.334;2024-03-08T11:36:56;99667.50;;;20.49
19061;BMP280;9663;48.996;8.334;2024-03-08T11:39:22;99646.53;;;21.76
19061;BMP280;9663;48.996;8.334;2024-03-08T11:41:49;99644.69;;;23.15
19061;BMP280;9663;48.996;8.334;2024-03-08T11:44:15;99648.00;;;24.31
19061;BMP280;9663;48.996;8.334;2024-03-08T11:46:42;99626.66;;;25.22
19061;BMP280;9663;48.996;8.334;2024-03-08T11:49:13;99630.09;;;26.01
19061;BMP280;9663;48.996;8.334;2024-03-08T11:51:39;99615.66;;;26.63
19061;BMP280;9663;48.996;8.334;2024-03-08T11:54:06;99621.25;;;27.31
19061;BMP280;9663;48.996;8.334;2024-03-08T11:56:32;99610.34;;;27.98
19061;BMP280;9663;48.996;8.334;2024-03-08T11:58:58;99594.47;;;28.40
19061;BMP280;9663;48.996;8.334;2024-03-08T12:01:24;99597.66;;;28.73
19061;BMP280;9663;48.996;8.334;2024-03-08T12:03:54;99587.34;;;29.19
19061;BMP280;9663;48.996;8.334;2024-03-08T12:06:21;99594.50;;;29.64
19061;BMP280;9663;48.996;8.334;2024-03-08T12:08:47;99590.16;;;29.91
19061;BMP280;9663;48.996;8.334;2024-03-08T12:11:17;99573.75;;;30.08
19061;BMP280;9663;48.996;8.334;2024-03-08T12:13:49;99573.75;;;30.44
19061;BMP280;9663;48.996;8.334;2024-03-08T12:16:18;99570.59;;;30.40
19061;BMP280;9663;48.996;8.334;2024-03-08T12:18:44;99567.13;;;30.40
19061;BMP280;9663;48.996;8.334;2024-03-08T12:21:12;99565.03;;;30.43
19061;BMP280;9663;48.996;8.334;2024-03-08T12:23:40;99560.19;;;30.48
19061;BMP280;9663;48.996;8.334;2024-03-08T12:26:24;99542.13;;;30.55
19061;BMP280;9663;48.996;8.334;2024-03-08T12:28:51;99551.03;;;30.79
19061;BMP280;9663;48.996;8.334;2024-03-08T12:31:18;99553.91;;;30.85
19061;BMP280;9663;48.996;8.334;2024-03-08T12:33:53;99554.59;;;30.87
19061;BMP280;9663;48.996;8.334;2024-03-08T12:36:21;99563.34;;;30.96
19061;BMP280;9663;48.996;8.334;2024-03-08T12:38:47;99553.16;;;31.10
19061;BMP280;9663;48.996;8.334;2024-03-08T12:41:18;99547.25;;;31.25
19061;BMP280;9663;48.996;8.334;2024-03-08T12:43:45;99537.81;;;31.15
19061;BMP280;9663;48.996;8.334;2024-03-08T12:46:19;99533.28;;;31.00
19061;BMP280;9663;48.996;8.334;2024-03-08T12:48:51;99532.13;;;31.02
19061;BMP280;9663;48.996;8.334;2024-03-08T12:51:20;99525.09;;;31.20
19061;BMP280;9663;48.996;8.334;2024-03-08T12:53:46;99521.41;;;31.47
19061;BMP280;9663;48.996;8.334;2024-03-08T12:56:34;99519.78;;;31.54
19061;BMP280;9663;48.996;8.334;2024-03-08T12:59:01;99509.06;;;31.65
19061;BMP280;9663;48.996;8.334;2024-03-08T13:01:27;99516.34;;;31.54
19061;BMP280;9663;48.996;8.334;2024-03-08T13:03:56;99503.34;;;31.45
19061;BMP280;9663;48.996;8.334;2024-03-08T13:06:22;99503.28;;;31.37
19061;BMP280;9663;48.996;8.334;2024-03-08T13:08:51;99500.06;;;31.43
19061;BMP280;9663;48.996;8.334;2024-03-08T13:11:18;99501.03;;;31.42
19061;BMP280;9663;48.996;8.334;2024-03-08T13:13:45;99490.31;;;31.52
19061;BMP280;9663;48.996;8.334;2024-03-08T13:16:10;99488.59;;;31.69
19061;BMP280;9663;48.996;8.334;2024-03-08T13:18:43;99480.81;;;31.85
19061;BMP280;9663;48.996;8.334;2024-03-08T13:21:09;99472.09;;;31.84
19061;BMP280;9663;48.996;8.334;2024-03-08T13:23:37;99482.09;;;31.81
19061;BMP280;9663;48.996;8.334;2024-03-08T13:26:10;99464.38;;;31.75
19061;BMP280;9663;48.996;8.334;2024-03-08T13:31:09;99460.38;;;31.63
19061;BMP280;9663;48.996;8.334;2024-03-08T13:33:38;99450.06;;;31.36
19061;BMP280;9663;48.996;8.334;2024-03-08T13:36:06;99447.03;;;30.63
19061;BMP280;9663;48.996;8.334;2024-03-08T13:38:35;99445.53;;;29.73
19061;BMP280;9663;48.996;8.334;2024-03-08T13:41:02;99449.44;;;29.05
19061;BMP280;9663;48.996;8.334;2024-03-08T13:43:28;99437.91;;;28.88
19061;BMP280;9663;48.996;8.334;2024-03-08T13:45:55;99435.81;;;29.20
19061;BMP280;9663;48.996;8.334;2024-03-08T13:48:21;99424.25;;;29.68
19061;BMP280;9663;48.996;8.334;2024-03-08T13:50:48;99428.44;;;30.05
19061;BMP280;9663;48.996;8.334;2024-03-08T13:53:15;99421.16;;;30.43
19061;BMP280;9663;48.996;8.334;2024-03-08T13:55:41;99417.63;;;30.69
19061;BMP280;9663;48.996;8.334;2024-03-08T13:58:06;99426.38;;;30.95
19061;BMP280;9663;48.996;8.334;2024-03-08T14:00:36;99430.25;;;31.34
19061;BMP280;9663;48.996;8.334;2024-03-08T14:03:02;99429.38;;;31.50
19061;BMP280;9663;48.996;8.334;2024-03-08T14:05:38;99417.59;;;31.54
19061;BMP280;9663;48.996;8.334;2024-03-08T14:08:08;99419.91;;;31.57
19061;BMP280;9663;48.996;8.334;2024-03-08T14:10:35;99408.47;;;31.58
19061;BMP280;9663;48.996;8.334;2024-03-08T14:13:03;99407.94;;;31.55
19061;BMP280;9663;48.996;8.334;2024-03-08T14:15:31;99398.31;;;31.63
19061;BMP280;9663;48.996;8.334;2024-03-08T14:17:57;99383.28;;;31.73
19061;BMP280;9663;48.996;8.334;2024-03-08T14:20:23;99381.25;;;31.51
19061;BMP280;9663;48.996;8.334;2024-03-08T14:22:56;99383.47;;;30.71
19061;BMP280;9663;48.996;8.334;2024-03-08T14:25:23;99381.50;;;29.60
19061;BMP280;9663;48.996;8.334;2024-03-08T14:27:51;99389.44;;;28.30